Time;durP1;ratioP1;P1;durP2;ratioP2;P2;SDS_P1;SDS_P2;PMS_P1;PMS_P2;Temp;Humidity;BMP_temperature;BMP_pressure;BME280_temperature;BME280_humidity;BME280_pressure;Samples;Min_cycle;Max_cycle;Signal;HPM_P1;HPM_P2
2023/09/11 00:01:15;;;;;;;6.87;4.73;;;;;;;19.62;100.00;97311.72;5074373;28;20435;-78
2023/09/11 00:03:41;;;;;;;6.72;4.80;;;;;;;19.58;100.00;97308.06;5084266;28;20394;-78
2023/09/11 00:06:07;;;;;;;6.53;4.97;;;;;;;19.55;100.00;97315.94;5089899;28;20406;-78
2023/09/11 00:08:34;;;;;;;7.05;4.70;;;;;;;19.53;100.00;97308.22;5074476;28;20903;-78
2023/09/11 00:11:02;;;;;;;6.60;4.80;;;;;;;19.53;100.00;97307.44;5085889;28;20401;-78
2023/09/11 00:13:29;;;;;;;9.07;4.90;;;;;;;19.49;100.00;97301.88;5094325;28;20408;-78
2023/09/11 00:15:55;;;;;;;6.35;4.90;;;;;;;19.49;100.00;97298.41;5094287;28;20875;-78
2023/09/11 00:18:23;;;;;;;6.87;4.80;;;;;;;19.46;100.00;97297.13;5109657;28;20466;-78
2023/09/11 00:20:49;;;;;;;5.72;4.20;;;;;;;19.45;100.00;97297.41;5094121;28;20546;-78
2023/09/11 00:23:16;;;;;;;7.75;4.90;;;;;;;19.44;100.00;97293.16;5097236;28;20527;-78
2023/09/11 00:25:42;;;;;;;7.95;4.47;;;;;;;19.41;100.00;97293.75;5095673;28;20486;-78
2023/09/11 00:28:10;;;;;;;7.75;4.57;;;;;;;19.40;100.00;97290.28;5089599;28;20408;-78
2023/09/11 00:30:36;;;;;;;7.93;5.20;;;;;;;19.36;100.00;97292.00;5082930;28;20423;-78
2023/09/11 00:33:03;;;;;;;6.75;4.68;;;;;;;19.33;100.00;97284.56;5081806;28;20899;-78
2023/09/11 00:35:29;;;;;;;6.88;4.43;;;;;;;19.31;100.00;97290.25;5073404;28;20412;-78
2023/09/11 00:37:56;;;;;;;7.22;4.45;;;;;;;19.28;100.00;97282.03;5073575;28;20415;-78
2023/09/11 00:40:22;;;;;;;5.70;4.55;;;;;;;19.26;100.00;97281.53;5080286;28;20390;-78
2023/09/11 00:42:48;;;;;;;5.75;4.43;;;;;;;19.25;100.00;97279.94;5083320;28;20409;-78
2023/09/11 00:45:16;;;;;;;7.60;4.72;;;;;;;19.24;100.00;97281.06;5078938;28;20418;-78
2023/09/11 00:47:44;;;;;;;7.20;4.75;;;;;;;19.22;100.00;97280.59;5076145;28;20395;-78
2023/09/11 00:50:11;;;;;;;6.63;4.78;;;;;;;19.20;100.00;97283.56;5073225;28;20406;-78
2023/09/11 00:52:38;;;;;;;6.47;4.50;;;;;;;19.19;100.00;97283.88;5073276;28;20939;-78
2023/09/11 00:55:05;;;;;;;6.28;4.32;;;;;;;19.17;100.00;97265.38;5073171;28;20415;-78
2023/09/11 00:57:32;;;;;;;6.03;4.35;;;;;;;19.15;100.00;97272.97;5088405;28;20845;-78
2023/09/11 00:59:58;;;;;;;6.63;4.53;;;;;;;19.14;100.00;97267.91;5093701;28;20784;-78
2023/09/11 01:02:26;;;;;;;6.97;4.90;;;;;;;19.12;100.00;97270.09;5093468;28;20401;-78
2023/09/11 01:04:52;;;;;;;6.22;4.60;;;;;;;19.10;100.00;97259.69;5081592;28;20498;-78
2023/09/11 01:07:18;;;;;;;8.82;5.53;;;;;;;19.06;100.00;97261.41;5073026;28;20422;-78
2023/09/11 01:09:45;;;;;;;6.97;4.87;;;;;;;19.03;100.00;97261.22;5072864;28;20399;-78
2023/09/11 01:12:11;;;;;;;7.13;4.70;;;;;;;19.01;100.00;97260.75;5073212;28;20411;-77
2023/09/11 01:14:37;;;;;;;6.95;4.90;;;;;;;18.95;100.00;97252.81;5072487;28;20813;-78
2023/09/11 01:17:19;;;;;;;8.32;4.70;;;;;;;18.93;100.00;97254.25;5072926;28;20401;-78
2023/09/11 01:20:10;;;;;;;7.03;5.00;;;;;;;18.92;100.00;97256.13;5072635;28;20402;-78
2023/09/11 01:23:00;;;;;;;9.32;4.80;;;;;;;18.94;100.00;97258.53;5062602;28;20884;-77
2023/09/11 01:26:01;;;;;;;6.18;4.28;;;;;;;18.94;100.00;97248.56;5078481;28;20937;-78
2023/09/11 01:29:02;;;;;;;6.60;4.68;;;;;;;18.95;100.00;97249.34;5093709;28;20390;-78
2023/09/11 01:31:31;;;;;;;6.60;4.60;;;;;;;18.94;100.00;97245.88;5077170;28;20450;-78
2023/09/11 01:34:00;;;;;;;4.65;3.90;;;;;;;18.93;100.00;97244.31;5080672;28;20407;-78
2023/09/11 01:36:26;;;;;;;6.72;5.10;;;;;;;18.89;100.00;97235.28;5072478;28;20400;-78
2023/09/11 01:38:53;;;;;;;12.68;6.03;;;;;;;18.85;100.00;97241.59;5075504;28;20419;-78
2023/09/11 01:41:24;;;;;;;7.20;5.57;;;;;;;18.80;100.00;97247.06;5084348;28;20634;-78
2023/09/11 01:43:53;;;;;;;7.75;5.32;;;;;;;18.75;100.00;97247.19;5073818;28;20494;-77
2023/09/11 01:46:21;;;;;;;5.80;4.50;;;;;;;18.71;100.00;97238.97;5072912;28;20513;-78
2023/09/11 01:48:50;;;;;;;8.27;5.07;;;;;;;18.69;100.00;97245.75;5081056;28;20467;-78
2023/09/11 01:51:18;;;;;;;8.07;5.23;;;;;;;18.67;100.00;97242.56;5073625;28;20915;-78
2023/09/11 01:53:44;;;;;;;8.80;5.10;;;;;;;18.63;100.00;97239.72;5073137;28;20475;-78
2023/09/11 01:56:11;;;;;;;8.03;5.23;;;;;;;18.59;100.00;97240.63;5073305;28;20406;-77
2023/09/11 01:58:37;;;;;;;7.47;5.20;;;;;;;18.55;100.00;97235.84;5074076;28;20424;-77
2023/09/11 02:01:03;;;;;;;6.68;5.10;;;;;;;18.54;100.00;97233.47;5093804;28;20410;-78
2023/09/11 02:03:31;;;;;;;9.00;5.20;;;;;;;18.54;100.00;97244.19;5093773;28;20459;-78
2023/09/11 02:05:57;;;;;;;7.22;5.13;;;;;;;18.51;100.00;97237.56;5093968;28;20919;-78
2023/09/11 02:08:23;;;;;;;6.82;5.07;;;;;;;18.49;100.00;97233.59;5093407;28;20480;-78
2023/09/11 02:10:49;;;;;;;5.75;4.70;;;;;;;18.46;100.00;97229.66;5093287;28;20758;-78
2023/09/11 02:13:16;;;;;;;10.15;5.00;;;;;;;18.43;100.00;97232.13;5092998;28;20414;-78
2023/09/11 02:15:42;;;;;;;8.98;5.30;;;;;;;18.41;100.00;97234.34;5093183;28;20426;-78
2023/09/11 02:18:09;;;;;;;10.13;5.50;;;;;;;18.38;100.00;97230.38;5093321;28;20789;-78
2023/09/11 02:20:37;;;;;;;9.38;5.13;;;;;;;18.37;100.00;97228.78;5092858;28;20451;-78
2023/09/11 02:23:03;;;;;;;7.65;5.45;;;;;;;18.35;100.00;97227.50;5092869;28;20406;-78
2023/09/11 02:25:29;;;;;;;7.00;5.50;;;;;;;18.31;100.00;97224.66;5092988;28;20437;-78
2023/09/11 02:27:55;;;;;;;7.78;5.70;;;;;;;18.26;100.00;97232.81;5092754;28;20398;-78
2023/09/11 02:30:21;;;;;;;9.20;6.13;;;;;;;18.25;100.00;97231.22;5078238;28;20419;-78
2023/09/11 02:32:48;;;;;;;6.97;5.22;;;;;;;18.23;100.00;97233.41;5072489;28;20399;-78
2023/09/11 02:35:14;;;;;;;6.65;5.07;;;;;;;18.24;100.00;97228.84;5076831;28;20411;-78
2023/09/11 02:37:41;;;;;;;9.10;5.47;;;;;;;18.22;100.00;97231.81;5076705;28;20942;-78
2023/09/11 02:40:08;;;;;;;6.63;4.85;;;;;;;18.20;100.00;97225.97;5076898;28;20414;-78
2023/09/11 02:42:35;;;;;;;7.22;5.00;;;;;;;18.18;100.00;97231.66;5076561;28;20754;-77
2023/09/11 02:45:01;;;;;;;7.35;5.30;;;;;;;18.17;100.00;97232.75;5096239;28;20398;-78
2023/09/11 02:47:28;;;;;;;7.50;5.50;;;;;;;18.15;100.00;97228.78;5080429;28;20434;-78
2023/09/11 02:49:54;;;;;;;6.80;5.13;;;;;;;18.14;100.00;97233.34;5087164;28;20402;-78
2023/09/11 02:52:20;;;;;;;7.53;5.13;;;;;;;18.12;100.00;97232.84;5096663;28;20492;-78
2023/09/11 02:54:47;;;;;;;6.13;4.70;;;;;;;18.12;100.00;97232.03;5094185;28;20413;-78
2023/09/11 02:57:14;;;;;;;6.28;4.57;;;;;;;18.11;100.00;97233.16;5075953;28;20911;-78
2023/09/11 02:59:40;;;;;;;7.77;4.60;;;;;;;18.10;100.00;97234.25;5077065;28;20775;-78
2023/09/11 03:02:06;;;;;;;6.55;5.10;;;;;;;18.09;100.00;97225.44;5088152;28;20493;-78
2023/09/11 03:04:32;;;;;;;6.15;4.55;;;;;;;18.09;100.00;97228.09;5088206;28;20403;-78
2023/09/11 03:06:58;;;;;;;7.35;4.90;;;;;;;18.08;100.00;97237.22;5075793;28;20851;-78
2023/09/11 03:09:26;;;;;;;6.72;5.10;;;;;;;18.04;100.00;97230.13;5075923;28;20404;-78
2023/09/11 03:11:53;;;;;;;9.95;5.63;;;;;;;18.05;100.00;97227.09;5076343;28;20400;-78
2023/09/11 03:14:20;;;;;;;6.85;5.30;;;;;;;18.04;100.00;97230.88;5089296;28;20402;-78
2023/09/11 03:16:46;;;;;;;7.80;5.33;;;;;;;18.02;100.00;97219.69;5095899;28;20402;-78
2023/09/11 03:19:12;;;;;;;7.95;5.50;;;;;;;18.00;100.00;97227.22;5096075;28;20410;-78
2023/09/11 03:21:38;;;;;;;8.07;6.05;;;;;;;17.97;100.00;97237.75;5096171;28;20394;-78
2023/09/11 03:24:05;;;;;;;6.32;5.10;;;;;;;17.93;100.00;97226.84;5095957;28;20455;-78
2023/09/11 03:26:32;;;;;;;6.47;5.10;;;;;;;17.92;100.00;97232.50;5095744;28;20398;-78
2023/09/11 03:28:59;;;;;;;12.07;5.75;;;;;;;17.89;100.00;97236.59;5096081;28;20439;-78
2023/09/11 03:31:25;;;;;;;8.57;6.00;;;;;;;17.87;100.00;97233.44;5095597;28;20394;-78
2023/09/11 03:33:51;;;;;;;7.97;5.53;;;;;;;17.84;100.00;97226.00;5095909;28;20402;-78
2023/09/11 03:36:18;;;;;;;8.07;5.50;;;;;;;17.80;100.00;97225.03;5096059;28;20420;-78
2023/09/11 03:38:45;;;;;;;9.15;5.47;;;;;;;17.79;100.00;97228.78;5095734;28;20424;-78
2023/09/11 03:41:11;;;;;;;7.93;5.60;;;;;;;17.76;100.00;97227.50;5095717;28;20409;-77
2023/09/11 03:43:37;;;;;;;9.70;5.18;;;;;;;17.71;100.00;97232.97;5095100;28;20427;-78
2023/09/11 03:46:05;;;;;;;9.07;6.05;;;;;;;17.65;100.00;97228.81;5073627;28;20758;-78
2023/09/11 03:48:31;;;;;;;8.45;5.60;;;;;;;17.61;100.00;97225.13;5075047;28;20388;-78
2023/09/11 03:50:57;;;;;;;8.57;6.20;;;;;;;17.61;100.00;97227.00;5074959;28;20873;-78
2023/09/11 03:53:23;;;;;;;8.32;6.18;;;;;;;17.60;100.00;97234.22;5075532;28;20396;-78
2023/09/11 03:55:50;;;;;;;8.57;5.60;;;;;;;17.59;100.00;97232.63;5083661;28;20483;-78
2023/09/11 03:58:17;;;;;;;8.70;5.60;;;;;;;17.55;100.00;97242.38;5075046;28;20451;-78
2023/09/11 04:00:44;;;;;;;9.95;6.32;;;;;;;17.52;100.00;97232.25;5085112;28;20398;-78
2023/09/11 04:03:12;;;;;;;8.10;5.70;;;;;;;17.49;100.00;97235.53;5075607;28;20455;-78
2023/09/11 04:05:38;;;;;;;7.60;5.90;;;;;;;17.46;100.00;97235.34;5074745;28;20884;-78
2023/09/11 04:08:05;;;;;;;7.22;5.40;;;;;;;17.45;100.00;97228.38;5075172;28;20392;-78
2023/09/11 04:10:31;;;;;;;10.05;6.55;;;;;;;17.42;100.00;97238.63;5075242;28;20406;-78
2023/09/11 04:12:57;;;;;;;9.82;6.10;;;;;;;17.40;100.00;97235.44;5086727;28;20398;-78
2023/09/11 04:15:23;;;;;;;9.77;5.87;;;;;;;17.35;100.00;97229.41;5079506;28;20483;-78
2023/09/11 04:17:49;;;;;;;12.00;6.70;;;;;;;17.31;100.00;97226.53;5083064;28;20414;-78
2023/09/11 04:20:17;;;;;;;12.00;6.38;;;;;;;17.29;100.00;97225.25;5074722;28;20400;-78
2023/09/11 04:22:43;;;;;;;6.78;5.47;;;;;;;17.26;100.00;97234.66;5082889;28;20436;-77
2023/09/11 04:25:10;;;;;;;7.25;5.63;;;;;;;17.25;100.00;97232.28;5082284;28;20926;-77
2023/09/11 04:27:36;;;;;;;7.15;5.63;;;;;;;17.22;100.00;97230.19;5074263;28;20537;-78
2023/09/11 04:30:03;;;;;;;8.82;5.90;;;;;;;17.21;100.00;97236.66;5073784;28;20408;-78
2023/09/11 04:32:30;;;;;;;9.27;6.00;;;;;;;17.19;100.00;97228.13;5074145;28;20479;-78
2023/09/11 04:34:56;;;;;;;9.67;6.30;;;;;;;17.18;100.00;97230.00;5073946;28;20415;-78
2023/09/11 04:37:26;;;;;;;8.65;6.20;;;;;;;17.18;100.00;97229.19;5079156;28;21096;-78
2023/09/11 04:39:52;;;;;;;8.35;5.65;;;;;;;17.16;100.00;97231.38;5089814;28;21017;-78
2023/09/11 04:42:19;;;;;;;11.93;6.43;;;;;;;17.14;100.00;97218.28;5079260;28;20797;-77
2023/09/11 04:44:46;;;;;;;9.43;6.40;;;;;;;17.13;100.00;97226.63;5073546;28;20479;-78
2023/09/11 04:47:12;;;;;;;8.95;6.88;;;;;;;17.10;100.00;97225.34;5073929;28;20461;-78
2023/09/11 04:49:38;;;;;;;9.18;5.97;;;;;;;17.08;100.00;97227.50;5080809;28;20390;-78
2023/09/11 04:52:04;;;;;;;8.88;6.00;;;;;;;17.06;100.00;97220.88;5081342;28;20400;-78
2023/09/11 04:54:32;;;;;;;8.70;6.53;;;;;;;17.03;100.00;97220.38;5073515;28;20475;-78
2023/09/11 04:56:58;;;;;;;8.88;6.45;;;;;;;17.02;100.00;97223.34;5081769;28;20827;-78
2023/09/11 04:59:24;;;;;;;7.85;6.07;;;;;;;17.02;100.00;97234.03;5077535;28;20414;-78
2023/09/11 05:01:50;;;;;;;8.93;5.70;;;;;;;17.00;100.00;97233.53;5082384;28;20443;-78
2023/09/11 05:04:16;;;;;;;7.65;5.95;;;;;;;16.98;100.00;97230.38;5092203;28;20410;-78
2023/09/11 05:06:43;;;;;;;12.55;6.45;;;;;;;16.97;100.00;97228.78;5094010;28;20394;-78
2023/09/11 05:09:09;;;;;;;7.70;5.97;;;;;;;16.95;100.00;97228.28;5093585;28;20952;-78
2023/09/11 05:11:37;;;;;;;11.32;6.28;;;;;;;16.96;100.00;97221.84;5091282;28;20497;-78
2023/09/11 05:14:03;;;;;;;8.15;6.35;;;;;;;16.96;100.00;97225.31;5092057;28;20495;-78
2023/09/11 05:16:29;;;;;;;11.77;6.50;;;;;;;16.96;100.00;97232.56;5076562;28;20838;-78
2023/09/11 05:18:56;;;;;;;10.23;6.32;;;;;;;16.94;100.00;97229.38;5072612;28;20411;-78
2023/09/11 05:21:22;;;;;;;7.43;6.03;;;;;;;16.93;100.00;97225.13;5079457;28;20725;-78
2023/09/11 05:23:48;;;;;;;9.32;6.53;;;;;;;16.93;100.00;97227.78;5074732;28;20404;-79
2023/09/11 05:26:14;;;;;;;7.95;6.00;;;;;;;16.92;100.00;97229.66;5072725;28;20482;-77
2023/09/11 05:28:42;;;;;;;7.45;6.00;;;;;;;16.93;100.00;97228.56;5072408;28;20403;-77
2023/09/11 05:31:08;;;;;;;8.98;6.45;;;;;;;16.95;100.00;97225.63;5072109;28;20513;-77
2023/09/11 05:33:35;;;;;;;9.45;6.00;;;;;;;16.97;100.00;97224.25;5071939;28;20769;-77
2023/09/11 05:36:02;;;;;;;12.35;7.00;;;;;;;16.97;100.00;97226.13;5071406;28;20392;-77
2023/09/11 05:38:28;;;;;;;8.50;6.45;;;;;;;16.98;100.00;97230.38;5071096;28;20411;-77
2023/09/11 05:40:55;;;;;;;9.95;6.78;;;;;;;17.01;100.00;97235.91;5071209;28;20407;-77
2023/09/11 05:43:21;;;;;;;11.18;7.25;;;;;;;17.03;100.00;97244.44;5084775;28;20972;-77
2023/09/11 05:45:48;;;;;;;9.27;6.93;;;;;;;17.05;100.00;97244.16;5092444;28;20467;-77
2023/09/11 05:48:15;;;;;;;10.07;6.53;;;;;;;17.08;100.00;97243.53;5085669;28;20438;-77
2023/09/11 05:50:41;;;;;;;11.65;6.63;;;;;;;17.11;100.00;97250.19;5070849;28;20403;-77
2023/09/11 05:53:07;;;;;;;10.27;6.22;;;;;;;17.14;100.00;97252.28;5070891;28;20453;-77
2023/09/11 05:55:34;;;;;;;10.82;6.60;;;;;;;17.18;100.00;97255.94;5070781;28;20487;-77
2023/09/11 05:58:00;;;;;;;11.98;6.47;;;;;;;17.22;100.00;97251.56;5079213;28;20502;-77
2023/09/11 06:00:27;;;;;;;9.18;6.25;;;;;;;17.26;100.00;97252.59;5079047;28;20422;-77
2023/09/11 06:02:54;;;;;;;7.47;5.78;;;;;;;17.32;100.00;97246.03;5070873;28;20439;-77
2023/09/11 06:05:21;;;;;;;8.90;5.78;;;;;;;17.37;100.00;97254.75;5070574;28;20396;-77
2023/09/11 06:07:47;;;;;;;10.03;6.20;;;;;;;17.43;100.00;97250.13;5070202;28;20473;-77
2023/09/11 06:10:14;;;;;;;6.45;5.38;;;;;;;17.50;100.00;97252.41;5070660;28;20483;-77
2023/09/11 06:12:40;;;;;;;9.20;6.00;;;;;;;17.54;100.00;97240.78;5087001;28;20406;-77
2023/09/11 06:15:07;;;;;;;7.78;5.70;;;;;;;17.59;100.00;97243.34;5090367;28;20864;-77
2023/09/11 06:17:33;;;;;;;8.23;5.57;;;;;;;17.65;100.00;97252.13;5090836;28;20441;-77
2023/09/11 06:20:01;;;;;;;7.85;5.47;;;;;;;17.70;100.00;97250.13;5090550;28;20844;-76
2023/09/11 06:22:27;;;;;;;6.93;5.10;;;;;;;17.76;100.00;97256.94;5090152;28;20485;-76
2023/09/11 06:24:53;;;;;;;6.13;4.57;;;;;;;17.81;100.00;97258.72;5069786;28;20869;-76
2023/09/11 06:27:19;;;;;;;7.15;5.35;;;;;;;17.88;100.00;97261.00;5081413;28;20413;-77
2023/09/11 06:29:46;;;;;;;7.50;5.55;;;;;;;17.93;100.00;97264.34;5090041;28;21019;-77
2023/09/11 06:32:14;;;;;;;7.50;5.30;;;;;;;18.01;100.00;97273.56;5085071;28;20392;-76
2023/09/11 06:34:40;;;;;;;9.68;5.43;;;;;;;18.07;100.00;97264.31;5070285;28;20421;-76
2023/09/11 06:37:11;;;;;;;10.40;5.73;;;;;;;18.15;100.00;97263.59;5083747;28;20527;-77
2023/09/11 06:39:37;;;;;;;9.27;6.25;;;;;;;18.22;100.00;97261.28;5088481;28;20500;-77
2023/09/11 06:42:04;;;;;;;7.38;5.40;;;;;;;18.32;100.00;97262.97;5086052;28;20396;-76
2023/09/11 06:44:30;;;;;;;8.50;5.78;;;;;;;18.41;100.00;97266.50;5070878;28;20400;-76
2023/09/11 06:46:57;;;;;;;8.80;5.85;;;;;;;18.49;100.00;97269.22;5070084;28;20490;-76
2023/09/11 06:49:24;;;;;;;8.73;5.97;;;;;;;18.57;100.00;97265.06;5072765;28;20531;-76
2023/09/11 06:51:50;;;;;;;9.52;5.78;;;;;;;18.66;100.00;97265.09;5079875;28;20397;-76
2023/09/11 06:54:17;;;;;;;7.25;5.53;;;;;;;18.75;100.00;97256.03;5076867;28;20407;-76
2023/09/11 06:56:44;;;;;;;7.60;5.30;;;;;;;18.85;100.00;97263.03;5077760;28;20779;-77
2023/09/11 06:59:10;;;;;;;7.60;5.70;;;;;;;18.95;100.00;97258.19;5072416;28;20508;-76
2023/09/11 07:01:39;;;;;;;7.15;5.28;;;;;;;19.06;100.00;97258.72;5080799;28;20491;-77
2023/09/11 07:04:11;;;;;;;7.72;5.82;;;;;;;19.19;100.00;97255.16;5085976;28;20452;-77
2023/09/11 07:06:37;;;;;;;8.18;5.38;;;;;;;19.32;100.00;97261.53;5089095;28;20405;-76
2023/09/11 07:09:04;;;;;;;7.25;5.60;;;;;;;19.45;100.00;97260.63;5089553;28;20394;-76
2023/09/11 07:11:32;;;;;;;8.63;5.30;;;;;;;19.59;100.00;97263.22;5073759;28;20461;-77
2023/09/11 07:13:58;;;;;;;7.30;5.32;;;;;;;19.71;100.00;97258.81;5081422;28;20398;-76
2023/09/11 07:16:24;;;;;;;8.50;5.72;;;;;;;19.82;100.00;97264.69;5074496;28;20928;-76
2023/09/11 07:18:52;;;;;;;8.45;5.82;;;;;;;19.92;100.00;97261.69;5069284;28;20510;-76
2023/09/11 07:21:18;;;;;;;8.05;6.07;;;;;;;20.03;100.00;97263.00;5071542;28;20399;-76
2023/09/11 07:23:44;;;;;;;8.25;6.10;;;;;;;20.15;100.00;97269.66;5072712;28;21092;-77
2023/09/11 07:26:11;;;;;;;7.78;5.80;;;;;;;20.25;100.00;97263.94;5076927;28;20860;-76
2023/09/11 07:28:54;;;;;;;8.30;5.70;;;;;;;20.38;100.00;97265.72;5083907;28;20407;-77
2023/09/11 07:31:20;;;;;;;7.80;5.80;;;;;;;20.52;100.00;97268.25;5072897;28;20900;-76
2023/09/11 07:33:46;;;;;;;9.60;6.22;;;;;;;20.63;100.00;97267.59;5072468;28;20400;-76
2023/09/11 07:36:13;;;;;;;7.22;5.30;;;;;;;20.76;100.00;97263.94;5073640;28;20939;-77
2023/09/11 07:38:44;;;;;;;8.27;5.45;;;;;;;20.89;100.00;97270.25;5072184;28;20455;-76
2023/09/11 07:41:11;;;;;;;7.30;5.30;;;;;;;21.03;100.00;97260.09;5087484;28;20408;-77
2023/09/11 07:43:37;;;;;;;8.73;5.68;;;;;;;21.15;100.00;97262.88;5089339;28;20425;-77
2023/09/11 07:46:04;;;;;;;7.93;5.40;;;;;;;21.30;100.00;97268.88;5080963;28;20404;-76
2023/09/11 07:48:30;;;;;;;7.67;5.33;;;;;;;21.41;100.00;97264.72;5072474;28;20403;-77
2023/09/11 07:50:56;;;;;;;7.72;5.25;;;;;;;21.52;100.00;97261.34;5072513;28;20403;-77
2023/09/11 07:53:23;;;;;;;7.00;5.57;;;;;;;21.65;100.00;97253.34;5072733;28;20818;-77
2023/09/11 07:55:49;;;;;;;6.25;4.53;;;;;;;21.77;100.00;97262.31;5072446;28;20410;-77
2023/09/11 07:58:16;;;;;;;7.20;5.40;;;;;;;21.89;100.00;97259.69;5072676;28;20773;-77
2023/09/11 08:00:42;;;;;;;6.33;4.40;;;;;;;22.00;100.00;97254.75;5073821;28;20396;-76
2023/09/11 08:03:10;;;;;;;5.90;4.72;;;;;;;22.14;100.00;97265.28;5090325;28;20802;-78
2023/09/11 08:05:36;;;;;;;5.47;4.35;;;;;;;22.25;100.00;97264.53;5107491;28;20408;-76
2023/09/11 08:08:03;;;;;;;8.27;5.07;;;;;;;22.36;100.00;97259.53;5072376;28;20889;-76
2023/09/11 08:10:29;;;;;;;5.75;4.80;;;;;;;22.46;100.00;97263.75;5073339;28;20395;-77
2023/09/11 08:12:56;;;;;;;6.70;4.97;;;;;;;22.57;100.00;97264.91;5080552;28;20757;-77
2023/09/11 08:15:22;;;;;;;7.72;5.22;;;;;;;22.67;100.00;97259.91;5091259;28;20430;-78
2023/09/11 08:17:48;;;;;;;9.20;4.80;;;;;;;22.78;100.00;97260.28;5092768;28;20401;-77
2023/09/11 08:20:16;;;;;;;5.53;4.50;;;;;;;22.89;100.00;97257.97;5079185;28;20896;-77
2023/09/11 08:22:43;;;;;;;7.05;5.47;;;;;;;23.01;100.00;97266.09;5081934;28;21066;-76
2023/09/11 08:25:10;;;;;;;5.78;4.80;;;;;;;23.16;100.00;97265.44;5076529;28;20958;-76
2023/09/11 08:27:36;;;;;;;6.93;4.80;;;;;;;23.32;100.00;97268.28;5080631;28;20399;-76
2023/09/11 08:30:03;;;;;;;6.30;4.87;;;;;;;23.48;100.00;97267.31;5072113;28;20396;-77
2023/09/11 08:32:29;;;;;;;8.63;5.30;;;;;;;23.65;100.00;97263.59;5071638;28;20399;-76
2023/09/11 08:34:56;;;;;;;8.23;4.75;;;;;;;23.78;100.00;97267.06;5072153;28;20419;-77
2023/09/11 08:37:26;;;;;;;7.00;4.87;;;;;;;23.89;100.00;97274.41;5072374;28;20490;-76
2023/09/11 08:39:53;;;;;;;6.80;4.72;;;;;;;24.01;100.00;97278.19;5073260;28;20776;-76
2023/09/11 08:42:19;;;;;;;10.85;5.28;;;;;;;24.08;100.00;97281.91;5085625;28;20409;-76
2023/09/11 08:44:45;;;;;;;8.40;4.93;;;;;;;24.12;100.00;97273.91;5091265;28;20485;-76
2023/09/11 08:47:13;;;;;;;6.65;4.68;;;;;;;24.16;100.00;97275.59;5091414;28;20406;-75
2023/09/11 08:49:43;;;;;;;6.72;4.75;;;;;;;24.19;100.00;97280.31;5091493;28;20720;-76
2023/09/11 08:52:13;;;;;;;5.80;4.68;;;;;;;24.23;100.00;97265.00;5091097;28;20929;-76
2023/09/11 08:54:42;;;;;;;7.03;5.00;;;;;;;24.28;100.00;97272.88;5079378;28;20796;-76
2023/09/11 08:57:14;;;;;;;8.38;5.18;;;;;;;24.33;100.00;97271.06;5089683;28;20883;-76
2023/09/11 08:59:44;;;;;;;7.67;4.70;;;;;;;24.38;100.00;97270.81;5091314;28;20436;-76
2023/09/11 09:02:12;;;;;;;7.30;4.37;;;;;;;24.43;100.00;97274.09;5090657;28;20463;-76
2023/09/11 09:04:40;;;;;;;6.50;4.93;;;;;;;24.48;100.00;97268.44;5090493;28;20451;-75
2023/09/11 09:07:07;;;;;;;6.18;4.50;;;;;;;24.56;100.00;97264.78;5090761;28;20940;-77
2023/09/11 09:09:33;;;;;;;5.45;4.30;;;;;;;24.64;100.00;97265.78;5090484;28;20402;-76
2023/09/11 09:12:02;;;;;;;6.30;4.60;;;;;;;24.74;100.00;97265.25;5090474;28;20907;-76
2023/09/11 09:14:29;;;;;;;6.20;4.53;;;;;;;24.82;100.00;97261.59;5090294;28;20740;-76
2023/09/11 09:16:56;;;;;;;6.47;4.93;;;;;;;24.91;100.00;97258.78;5084064;28;20414;-76
2023/09/11 09:19:23;;;;;;;6.95;4.80;;;;;;;25.01;100.00;97250.16;5086588;28;20925;-76
2023/09/11 09:22:09;;;;;;;5.73;4.57;;;;;;;25.16;100.00;97254.00;5099228;22;20480;-77
2023/09/11 09:24:46;;;;;;;6.38;4.40;;;;;;;25.27;100.00;97255.06;5065660;28;20403;-77
2023/09/11 09:27:14;;;;;;;8.90;4.78;;;;;;;25.45;100.00;97253.56;5055956;28;20426;-77
2023/09/11 09:29:40;;;;;;;6.65;4.50;;;;;;;25.62;100.00;97253.25;5058429;28;20771;-76
2023/09/11 09:32:08;;;;;;;6.28;4.55;;;;;;;25.84;100.00;97254.53;5063069;28;20492;-77
2023/09/11 09:34:35;;;;;;;7.15;5.15;;;;;;;26.11;100.00;97250.06;5041294;28;20401;-78
2023/09/11 09:37:02;;;;;;;6.55;4.85;;;;;;;26.37;100.00;97250.25;5059012;28;20755;-78
2023/09/11 09:39:29;;;;;;;5.95;4.60;;;;;;;26.71;100.00;97240.44;5049361;28;20422;-78
2023/09/11 09:41:57;;;;;;;5.60;4.53;;;;;;;27.02;100.00;97242.22;5056387;28;20402;-76
2023/09/11 09:44:35;;;;;;;6.63;4.60;;;;;;;27.28;100.00;97239.56;5055261;28;20879;-77
2023/09/11 09:47:07;;;;;;;6.70;4.90;;;;;;;27.49;100.00;97241.84;5055836;28;20412;-77
2023/09/11 09:49:45;;;;;;;7.77;4.57;;;;;;;27.67;100.00;97233.97;5041516;28;20428;-78
2023/09/11 09:52:12;;;;;;;8.38;4.78;;;;;;;27.79;100.00;97241.94;5042310;28;20432;-77
2023/09/11 09:54:43;;;;;;;12.60;6.05;;;;;;;27.85;100.00;97235.00;5040765;28;20405;-77
2023/09/11 09:57:12;;;;;;;7.32;4.95;;;;;;;27.97;100.00;97237.50;5060241;28;20410;-77
2023/09/11 09:59:41;;;;;;;6.88;4.97;;;;;;;28.11;100.00;97237.72;5068127;28;20408;-78
2023/09/11 10:02:13;;;;;;;5.68;4.72;;;;;;;28.28;100.00;97239.13;5058263;28;21047;-78
2023/09/11 10:04:40;;;;;;;7.05;5.00;;;;;;;28.39;100.00;97226.44;5061395;28;20465;-77
2023/09/11 10:07:06;;;;;;;6.32;4.90;;;;;;;28.49;100.00;97219.53;5059705;28;20397;-77
2023/09/11 10:09:36;;;;;;;5.90;4.95;;;;;;;28.53;100.00;97219.56;5061132;28;20408;-77
2023/09/11 10:12:09;;;;;;;10.35;5.55;;;;;;;28.32;97.29;97225.56;5050767;28;20983;-78
2023/09/11 10:14:35;;;;;;;6.60;4.50;;;;;;;28.25;100.00;97222.75;5041912;28;20413;-78
2023/09/11 10:17:04;;;;;;;6.95;4.97;;;;;;;28.19;100.00;97216.84;5039307;28;20404;-76
2023/09/11 10:19:31;;;;;;;9.85;4.78;;;;;;;28.22;100.00;97213.38;5057798;28;20504;-77
2023/09/11 10:21:58;;;;;;;6.22;4.72;;;;;;;28.28;100.00;97217.34;5057305;28;20474;-77
2023/09/11 10:24:25;;;;;;;5.07;4.13;;;;;;;28.34;100.00;97204.97;5059034;28;20397;-77
2023/09/11 10:26:56;;;;;;;5.82;4.15;;;;;;;28.37;100.00;97200.72;5066417;28;20478;-76
2023/09/11 10:29:34;;;;;;;7.28;4.43;;;;;;;28.43;100.00;97199.22;5059352;28;20408;-77
2023/09/11 10:32:07;;;;;;;5.75;4.50;;;;;;;28.45;100.00;97197.72;5058800;28;20421;-77
2023/09/11 10:34:35;;;;;;;5.87;4.53;;;;;;;28.46;99.85;97202.00;5055550;28;20878;-77
2023/09/11 10:37:06;;;;;;;7.43;4.55;;;;;;;28.47;100.00;97202.78;5057906;28;20437;-78
2023/09/11 10:39:35;;;;;;;5.63;4.57;;;;;;;28.47;100.00;97198.13;5063819;28;20451;-78
2023/09/11 10:42:01;;;;;;;7.60;4.47;;;;;;;28.46;99.83;97199.28;5050924;28;20436;-77
2023/09/11 10:44:29;;;;;;;5.47;4.43;;;;;;;28.48;99.57;97199.69;5059931;28;20759;-77
2023/09/11 10:47:01;;;;;;;5.22;4.20;;;;;;;28.49;99.69;97195.03;5067951;28;20525;-78
2023/09/11 10:49:33;;;;;;;7.07;4.75;;;;;;;28.52;98.38;97186.09;5069549;28;20482;-78
2023/09/11 10:51:59;;;;;;;6.40;4.60;;;;;;;28.54;98.10;97191.97;5066298;28;20443;-78
2023/09/11 10:54:25;;;;;;;6.72;4.53;;;;;;;28.55;97.50;97188.09;5062565;28;20467;-78
2023/09/11 10:56:52;;;;;;;5.97;4.18;;;;;;;28.62;97.26;97188.16;5076122;28;20411;-78
2023/09/11 10:59:23;;;;;;;7.60;4.55;;;;;;;28.69;97.04;97185.50;5068469;28;20415;-78
2023/09/11 11:01:50;;;;;;;8.47;4.37;;;;;;;28.76;96.35;97184.84;5064982;28;20488;-78
2023/09/11 11:04:17;;;;;;;7.40;4.00;;;;;;;28.81;95.35;97181.75;5053001;28;20852;-80
2023/09/11 11:06:45;;;;;;;8.00;4.88;;;;;;;28.74;90.44;97176.22;5063581;28;20434;-77
2023/09/11 11:09:24;;;;;;;7.22;4.57;;;;;;;28.85;92.81;97172.47;5066069;28;20461;-77
2023/09/11 11:11:50;;;;;;;10.65;4.45;;;;;;;28.95;92.87;97170.19;5072827;28;20395;-78
2023/09/11 11:14:21;;;;;;;5.53;4.15;;;;;;;29.08;92.89;97168.78;5069628;28;20405;-76
2023/09/11 11:16:56;;;;;;;5.90;3.60;;;;;;;29.18;92.65;97160.66;5056803;28;20397;-77
2023/09/11 11:19:28;;;;;;;5.18;3.67;;;;;;;29.31;91.99;97163.91;5055930;28;20475;-76
2023/09/11 11:21:59;;;;;;;5.15;3.53;;;;;;;29.44;91.36;97161.66;5054708;28;20401;-76
2023/09/11 11:24:29;;;;;;;6.10;3.45;;;;;;;29.52;90.55;97153.16;5037526;28;20904;-77
2023/09/11 11:26:56;;;;;;;4.55;3.63;;;;;;;29.58;89.27;97159.03;5047813;28;20416;-77